메인 페이지
METAR-TAF:

METAR-TAF

공항 :

Duke Field, 플로리다, 미국

위도: 30-39N, 경도: 086-31W, 고도: 59m

현재 날씨관측

예보는 25분 전, 00:56시(UTC)에 발표되었습니다.
서남서7kt
온도 31°C
습도 66%
기압 1011 hPa
시정: 16.1km
맑음

METAR: KEGI 220056Z AUTO 25007KT 10SM CLR 31/24 A2985 RMK AO2 SLP107 T03130239 FZRANO $

시각: 20:21 (01:21 UTC)

예보

예보는 4 시간 46분 전, 20:35시(UTC)에 발표되었습니다.
예보 대상 시간: 20일 20시부터 21일 23시까지 (UTC)
6kt
시정 10km 이상
고도 3500ft 상공 구름 보통
고도 20000ft 상공 구름 많음
전환 중
21일 04시부터 21일 05시까지 (UTC)
3kt
시정 10km 이상
고도 4000ft 상공 구름 조금
고도 20000ft 상공 구름 보통
전환 중
21일 12시부터 21일 13시까지 (UTC)
서남서10kt
시정 10km 이상
고도 4000ft 상공 구름 보통
고도 12000ft 상공 구름 많음
고도 20000ft 상공 구름 많음
전환 중
21일 14시부터 21일 15시까지 (UTC)
서남서10kt, 순간 최대 풍속 15kt
시정 10km 이상
고도 3000ft 상공 구름 많음, 적란운.
고도 12000ft 상공 구름 많음
고도 20000ft 상공 구름 많음
시계 내 뇌우
전환 중
21일 15시부터 21일 16시까지 (UTC)
서남서15kt, 순간 최대 풍속 25kt
시정: 8000m
고도 2500ft 상공 구름 많음, 적란운.
고도 10000ft 상공 구름 많음
고도 20000ft 상공 흐림
뇌우, 약한비

TAF: KEGI 202035Z 2020/2123 35006KT 9999 SCT035 BKN200 QNH2990INS BECMG 2104/2105 28003KT 9999 FEW040 SCT200 QNH2991INS BECMG 2112/2113 24010KT 9999 SCT040 BKN120 BKN200 QNH2990INS BECMG 2114/2115 24010G15KT 9999 VCTS BKN030CB BKN120 BKN200 QNH2989INS BECMG 2115/2116 25015G25KT 8000 -TSRA BKN025CB BKN100 OVC200 QNH2987INS TX32/2020Z TN21/2111Z

4,000개 이상의 공항 관측 자료 및 예보 (METAR 및 TAF 보고).

지도상에서 검색 가능한 기상관측소가 노란 점과 빨간 점으로 표시되어 있습니다.

기상관측소 명을 보려면 표시 위로 마우스를 이동하세요.

날씨 관측과 예보를 보려면 클릭하세요.

지도 변경 : 확대하려면 엑스 표시가 있는 녹색 버튼, 축소하려면 빼기 표시가 있는 녹색 버튼, 다음 페이지의 지도를 보려면 녹색 화살표를 클릭하세요.


METAR-TAF: